createdAt,value
2018-03-31T00:01:05.620Z,75.00
2018-03-31T00:03:32.959Z,74.50
2018-03-31T00:06:00.301Z,74.80
2018-03-31T00:08:27.642Z,74.50
2018-03-31T00:10:54.979Z,74.60
2018-03-31T00:13:22.321Z,74.30
2018-03-31T00:15:50.376Z,74.30
2018-03-31T00:18:17.715Z,74.30
2018-03-31T00:20:45.770Z,75.50
2018-03-31T00:23:13.054Z,74.70
2018-03-31T00:25:40.352Z,74.00
2018-03-31T00:28:07.692Z,74.30
2018-03-31T00:30:35.039Z,74.90
2018-03-31T00:33:02.370Z,75.00
2018-03-31T00:35:29.711Z,74.80
2018-03-31T00:37:57.049Z,74.40
2018-03-31T00:40:24.328Z,74.50
2018-03-31T00:42:51.730Z,74.50
2018-03-31T00:45:19.070Z,74.20
2018-03-31T00:47:46.416Z,74.10
2018-03-31T00:50:13.853Z,74.40
2018-03-31T00:52:42.012Z,74.30
2018-03-31T00:55:09.352Z,74.40
2018-03-31T00:57:36.691Z,74.10
2018-03-31T01:00:04.032Z,74.20
2018-03-31T01:02:31.372Z,74.10
2018-03-31T01:04:58.609Z,74.20
2018-03-31T01:07:25.947Z,74.20
2018-03-31T01:09:53.287Z,74.40
2018-03-31T01:12:20.627Z,74.50
2018-03-31T01:14:47.966Z,74.60
2018-03-31T01:17:15.309Z,74.40
2018-03-31T01:19:42.651Z,74.60
2018-03-31T01:22:09.989Z,74.60
2018-03-31T01:24:37.328Z,74.30
2018-03-31T01:27:04.668Z,74.40
2018-03-31T01:29:32.007Z,74.20
2018-03-31T01:31:59.348Z,74.40
2018-03-31T01:34:26.688Z,74.90
2018-03-31T01:36:54.032Z,75.10
2018-03-31T01:39:21.469Z,75.40
2018-03-31T01:41:48.706Z,75.20
2018-03-31T01:44:16.045Z,75.30
2018-03-31T01:46:43.294Z,75.00
2018-03-31T01:49:10.627Z,74.80
2018-03-31T01:51:37.965Z,74.50
2018-03-31T01:54:05.306Z,74.60
2018-03-31T01:56:33.362Z,73.80
2018-03-31T01:59:00.599Z,73.80
2018-03-31T02:01:27.937Z,74.30
2018-03-31T02:03:55.277Z,74.20
2018-03-31T02:06:22.617Z,73.80
2018-03-31T02:08:49.907Z,74.00
2018-03-31T02:11:17.298Z,74.50
2018-03-31T02:13:44.637Z,74.50
2018-03-31T02:16:11.979Z,74.80
2018-03-31T02:18:39.318Z,74.60
2018-03-31T02:21:06.658Z,75.10
2018-03-31T02:23:33.998Z,75.20
2018-03-31T02:26:01.337Z,75.60
2018-03-31T02:28:28.677Z,76.10
2018-03-31T02:30:56.121Z,75.80
2018-03-31T02:33:23.461Z,75.80
2018-03-31T02:35:50.697Z,75.70
2018-03-31T02:38:18.045Z,76.10
2018-03-31T02:40:45.376Z,76.20
2018-03-31T02:43:12.617Z,76.20
2018-03-31T02:45:39.912Z,76.30
2018-03-31T02:48:07.296Z,76.40
2018-03-31T02:50:34.636Z,76.20
2018-03-31T02:53:01.976Z,76.00
2018-03-31T02:55:29.315Z,75.70
2018-03-31T02:57:56.680Z,76.10
2018-03-31T03:00:24.814Z,76.50
2018-03-31T03:02:52.152Z,76.60
2018-03-31T03:05:19.493Z,76.10
2018-03-31T03:07:46.834Z,76.00
2018-03-31T03:10:14.273Z,76.10
2018-03-31T03:12:41.638Z,75.70
2018-03-31T03:15:09.673Z,75.80
2018-03-31T03:17:37.012Z,75.80
2018-03-31T03:20:04.455Z,75.70
2018-03-31T03:22:31.793Z,75.30
2018-03-31T03:24:59.135Z,75.40
2018-03-31T03:27:26.473Z,75.70
2018-03-31T03:29:53.916Z,75.60
2018-03-31T03:32:21.255Z,75.70
2018-03-31T03:34:48.600Z,75.90
2018-03-31T03:37:16.036Z,75.70
2018-03-31T03:39:43.379Z,75.40
2018-03-31T03:42:10.725Z,75.40
2018-03-31T03:44:38.060Z,74.90
2018-03-31T03:47:05.502Z,74.00
2018-03-31T03:49:32.841Z,73.80
2018-03-31T03:52:00.180Z,74.10
2018-03-31T03:54:27.519Z,74.30
2018-03-31T03:56:54.858Z,74.30
2018-03-31T03:59:22.201Z,74.30
2018-03-31T04:01:49.643Z,74.20
2018-03-31T04:04:16.990Z,74.30
2018-03-31T04:06:44.320Z,74.60
2018-03-31T04:09:11.664Z,74.40
2018-03-31T04:11:39.004Z,74.20
2018-03-31T04:14:06.348Z,74.20
2018-03-31T04:16:33.692Z,74.20
2018-03-31T04:19:01.023Z,74.40
2018-03-31T04:21:28.361Z,74.10
2018-03-31T04:23:55.600Z,74.10
2018-03-31T04:26:22.938Z,74.30
2018-03-31T04:28:50.278Z,74.30
2018-03-31T04:31:17.622Z,74.10
2018-03-31T04:33:44.958Z,74.30
2018-03-31T04:36:12.301Z,74.20
2018-03-31T04:38:39.744Z,74.10
2018-03-31T04:41:07.081Z,73.80
2018-03-31T04:43:34.360Z,73.70
2018-03-31T04:46:01.659Z,73.30
2018-03-31T04:48:28.999Z,73.20
2018-03-31T04:50:56.337Z,73.20
2018-03-31T04:53:23.678Z,73.40
2018-03-31T04:55:51.019Z,73.50
2018-03-31T04:58:18.357Z,73.50
2018-03-31T05:00:45.697Z,73.50
2018-03-31T05:03:13.039Z,73.50
2018-03-31T05:05:40.379Z,73.30
2018-03-31T05:08:07.729Z,73.00
2018-03-31T05:10:35.160Z,73.10
2018-03-31T05:13:02.501Z,72.60
2018-03-31T05:15:29.842Z,72.50
2018-03-31T05:17:57.187Z,72.70
2018-03-31T05:20:24.521Z,72.60
2018-03-31T05:22:51.796Z,72.60
2018-03-31T05:25:19.822Z,72.90
2018-03-31T05:27:47.157Z,72.80
2018-03-31T05:30:14.499Z,73.00
2018-03-31T05:32:41.835Z,72.90
2018-03-31T05:35:09.174Z,72.40
2018-03-31T05:37:36.514Z,72.40
2018-03-31T05:40:03.854Z,72.10
2018-03-31T05:42:31.193Z,72.00
2018-03-31T05:44:58.532Z,72.00
2018-03-31T05:47:25.873Z,72.30
2018-03-31T05:49:53.213Z,72.10
2018-03-31T05:52:20.554Z,72.20
2018-03-31T05:54:47.891Z,72.30
2018-03-31T05:57:15.346Z,72.50
2018-03-31T05:59:42.555Z,72.20
2018-03-31T06:02:09.736Z,72.40
2018-03-31T06:04:37.766Z,71.70
2018-03-31T06:07:05.106Z,71.70
2018-03-31T06:09:33.076Z,72.20
2018-03-31T06:12:01.071Z,72.50
2018-03-31T06:14:28.455Z,72.40
2018-03-31T06:16:55.794Z,72.50
2018-03-31T06:19:23.134Z,72.70
2018-03-31T06:21:50.474Z,72.80
2018-03-31T06:24:17.813Z,72.70
2018-03-31T06:26:45.153Z,72.50
2018-03-31T06:29:12.495Z,72.10
2018-03-31T06:31:39.938Z,72.10
2018-03-31T06:34:07.278Z,72.30
2018-03-31T06:36:34.617Z,72.00
2018-03-31T06:39:01.963Z,71.90
2018-03-31T06:41:29.298Z,72.00
2018-03-31T06:43:56.636Z,71.70
2018-03-31T06:46:23.980Z,71.70
2018-03-31T06:48:51.337Z,72.20
2018-03-31T06:51:19.475Z,72.10
2018-03-31T06:53:46.815Z,72.10
2018-03-31T06:56:14.258Z,72.20
2018-03-31T06:58:41.601Z,72.70
2018-03-31T07:01:08.939Z,72.70
2018-03-31T07:03:36.382Z,72.60
2018-03-31T07:06:03.723Z,72.50
2018-03-31T07:08:30.957Z,72.30
2018-03-31T07:10:58.296Z,72.30
2018-03-31T07:13:25.637Z,71.80
2018-03-31T07:15:52.975Z,71.90
2018-03-31T07:18:20.317Z,71.70
2018-03-31T07:20:47.656Z,73.30
2018-03-31T07:23:14.892Z,72.20
2018-03-31T07:25:42.236Z,72.20
2018-03-31T07:28:09.574Z,71.40
2018-03-31T07:30:36.916Z,71.50
2018-03-31T07:33:04.254Z,71.60
2018-03-31T07:35:31.594Z,71.50
2018-03-31T07:37:58.934Z,71.30
2018-03-31T07:40:26.275Z,71.20
2018-03-31T07:42:53.613Z,71.40
2018-03-31T07:45:20.953Z,71.90
2018-03-31T07:47:48.298Z,71.70
2018-03-31T07:50:15.734Z,71.30
2018-03-31T07:52:43.089Z,71.90
2018-03-31T07:55:10.521Z,71.70
2018-03-31T07:57:37.864Z,71.60
2018-03-31T08:00:05.300Z,71.80
2018-03-31T08:02:32.642Z,71.20
2018-03-31T08:04:59.980Z,70.10
2018-03-31T08:07:27.320Z,70.60
2018-03-31T08:09:54.774Z,71.00
2018-03-31T08:12:22.205Z,70.90
2018-03-31T08:14:49.544Z,71.00
2018-03-31T08:17:16.840Z,70.60
2018-03-31T08:19:44.060Z,70.80
2018-03-31T08:22:11.360Z,71.10
2018-03-31T08:24:38.784Z,71.30
2018-03-31T08:27:06.041Z,71.30
2018-03-31T08:29:33.380Z,71.10
2018-03-31T08:32:00.718Z,70.40
2018-03-31T08:34:27.900Z,70.20
2018-03-31T08:36:55.297Z,70.30
2018-03-31T08:39:22.636Z,71.00
2018-03-31T08:41:49.977Z,70.10
2018-03-31T08:44:17.316Z,69.80
2018-03-31T08:46:44.655Z,69.60
2018-03-31T08:49:12.010Z,69.70
2018-03-31T08:51:39.448Z,70.00
2018-03-31T08:54:07.597Z,70.20
2018-03-31T08:56:34.939Z,70.20
2018-03-31T08:59:02.278Z,69.90
2018-03-31T09:01:29.617Z,69.10
2018-03-31T09:03:57.078Z,69.20
2018-03-31T09:06:25.121Z,69.20
2018-03-31T09:08:52.564Z,69.10
2018-03-31T09:11:19.935Z,68.80
2018-03-31T09:13:48.064Z,68.30
2018-03-31T09:16:16.011Z,68.30
2018-03-31T09:18:43.353Z,68.10
2018-03-31T09:21:10.694Z,68.10
2018-03-31T09:23:38.850Z,68.10
2018-03-31T09:26:06.192Z,68.00
2018-03-31T09:28:33.533Z,68.10
2018-03-31T09:31:00.891Z,68.30
2018-03-31T09:33:29.033Z,68.20
2018-03-31T09:35:56.304Z,68.10
2018-03-31T09:38:23.606Z,68.50
2018-03-31T09:40:50.951Z,68.80
2018-03-31T09:43:18.222Z,68.50
2018-03-31T09:45:46.343Z,67.90
2018-03-31T09:48:13.691Z,67.90
2018-03-31T09:50:41.127Z,68.00
2018-03-31T09:53:08.466Z,68.10
2018-03-31T09:55:35.811Z,68.00
2018-03-31T09:58:03.862Z,68.80
2018-03-31T10:00:36.016Z,68.70
2018-03-31T10:03:03.457Z,68.50
2018-03-31T10:05:30.798Z,67.90
2018-03-31T10:07:58.142Z,67.60
2018-03-31T10:10:25.476Z,67.60
2018-03-31T10:12:52.818Z,66.90
2018-03-31T10:15:20.156Z,67.00
2018-03-31T10:17:47.495Z,67.30
2018-03-31T10:20:15.450Z,67.30
2018-03-31T10:22:42.794Z,66.90
2018-03-31T10:25:10.134Z,67.50
2018-03-31T10:27:37.414Z,67.80
2018-03-31T10:30:04.811Z,67.90
2018-03-31T10:32:32.151Z,66.70
2018-03-31T10:34:59.490Z,66.70
2018-03-31T10:37:26.830Z,66.70
2018-03-31T10:39:54.170Z,66.50
2018-03-31T10:42:21.508Z,66.40
2018-03-31T10:44:48.849Z,66.40
2018-03-31T10:47:16.188Z,66.30
2018-03-31T10:49:43.531Z,66.50
2018-03-31T10:52:10.871Z,66.40
2018-03-31T10:54:38.211Z,65.60
2018-03-31T10:57:05.551Z,65.00
2018-03-31T10:59:32.788Z,65.10
2018-03-31T11:01:59.976Z,65.40
2018-03-31T11:04:27.200Z,64.80
2018-03-31T11:06:54.499Z,64.50
2018-03-31T11:09:21.845Z,64.30
2018-03-31T11:11:49.182Z,63.80
2018-03-31T11:14:16.519Z,63.50
2018-03-31T11:16:43.868Z,64.00
2018-03-31T11:19:11.202Z,63.60
2018-03-31T11:21:38.540Z,63.50
2018-03-31T11:24:05.880Z,63.00
2018-03-31T11:26:33.219Z,62.60
2018-03-31T11:29:00.558Z,62.50
2018-03-31T11:31:27.898Z,62.30
2018-03-31T11:33:55.340Z,62.90
2018-03-31T11:36:22.680Z,63.00
2018-03-31T11:38:49.908Z,62.50
2018-03-31T11:41:17.096Z,61.40
2018-03-31T11:43:44.498Z,62.00
2018-03-31T11:46:11.837Z,61.70
2018-03-31T11:48:39.182Z,61.90
2018-03-31T11:51:06.415Z,62.00
2018-03-31T11:53:33.755Z,61.70
2018-03-31T11:56:01.095Z,61.40
2018-03-31T11:58:28.436Z,60.80
2018-03-31T12:00:55.721Z,61.70
2018-03-31T12:03:23.111Z,61.20
2018-03-31T12:05:50.453Z,60.50
2018-03-31T12:08:17.791Z,59.50
2018-03-31T12:10:45.245Z,59.00
2018-03-31T12:13:13.294Z,57.20
2018-03-31T12:15:40.634Z,57.20
2018-03-31T12:18:07.982Z,56.00
2018-03-31T12:20:35.311Z,54.20
2018-03-31T12:23:02.661Z,55.50
2018-03-31T12:25:29.991Z,56.40
2018-03-31T12:27:57.330Z,55.70
2018-03-31T12:30:24.671Z,55.70
2018-03-31T12:32:52.009Z,54.00
2018-03-31T12:35:19.349Z,54.80
2018-03-31T12:37:46.690Z,55.80
2018-03-31T12:40:14.035Z,55.30
2018-03-31T12:42:41.372Z,54.80
2018-03-31T12:45:08.716Z,54.80
2018-03-31T12:47:36.054Z,54.70
2018-03-31T12:50:03.408Z,55.50
2018-03-31T12:52:31.550Z,56.50
2018-03-31T12:54:58.903Z,56.50
2018-03-31T12:57:26.954Z,57.20
2018-03-31T12:59:54.388Z,57.10
2018-03-31T13:02:21.729Z,57.90
2018-03-31T13:04:49.070Z,57.50
2018-03-31T13:07:16.406Z,56.40
2018-03-31T13:09:43.754Z,57.00
2018-03-31T13:12:11.099Z,56.80
2018-03-31T13:14:38.429Z,56.10
2018-03-31T13:17:05.769Z,55.80
2018-03-31T13:19:33.109Z,55.00
2018-03-31T13:22:00.449Z,57.00
2018-03-31T13:24:27.791Z,57.70
2018-03-31T13:26:55.128Z,55.00
2018-03-31T13:29:22.508Z,53.50
2018-03-31T13:31:49.908Z,53.20
2018-03-31T13:34:17.249Z,53.40
2018-03-31T13:36:44.701Z,53.70
2018-03-31T13:39:12.035Z,54.50
2018-03-31T13:41:39.378Z,54.70
2018-03-31T13:44:06.770Z,54.80
2018-03-31T13:46:34.155Z,55.70
2018-03-31T13:49:01.495Z,55.50
2018-03-31T13:51:28.834Z,54.10
2018-03-31T13:53:56.176Z,54.80
2018-03-31T13:56:23.516Z,56.20
2018-03-31T13:58:50.957Z,50.70
2018-03-31T14:01:18.236Z,52.30
2018-03-31T14:03:45.532Z,50.50
2018-03-31T14:06:12.979Z,50.50
2018-03-31T14:08:40.317Z,49.80
2018-03-31T14:11:07.625Z,47.80
2018-03-31T14:13:35.000Z,47.50
2018-03-31T14:16:02.278Z,47.20
2018-03-31T14:18:29.576Z,52.00
2018-03-31T14:20:56.914Z,51.60
2018-03-31T14:23:24.255Z,51.90
2018-03-31T14:25:51.593Z,54.80
2018-03-31T14:28:18.932Z,54.10
2018-03-31T14:30:46.271Z,51.70
2018-03-31T14:33:13.616Z,45.10
2018-03-31T14:35:41.161Z,44.90
2018-03-31T14:38:08.499Z,42.80
2018-03-31T14:40:35.838Z,46.40
2018-03-31T14:43:03.178Z,45.30
2018-03-31T14:45:30.517Z,47.70
2018-03-31T14:47:57.858Z,45.80
2018-03-31T14:50:25.196Z,45.00
2018-03-31T14:52:52.536Z,52.50
2018-03-31T14:55:19.875Z,55.00
2018-03-31T14:57:47.215Z,52.10
2018-03-31T15:00:14.659Z,51.30
2018-03-31T15:02:42.103Z,45.60
2018-03-31T15:05:09.461Z,42.00
2018-03-31T15:07:37.604Z,45.70
2018-03-31T15:10:04.944Z,45.60
2018-03-31T15:12:32.282Z,47.10
2018-03-31T15:14:59.621Z,47.80
2018-03-31T15:17:26.966Z,47.70
2018-03-31T15:19:54.299Z,48.40
2018-03-31T15:22:21.639Z,50.50
2018-03-31T15:24:49.187Z,41.80
2018-03-31T15:27:16.523Z,42.70
2018-03-31T15:29:43.871Z,41.90
2018-03-31T15:32:11.206Z,41.30
2018-03-31T15:34:38.547Z,42.30
2018-03-31T15:37:05.885Z,42.20
2018-03-31T15:39:33.225Z,42.40
2018-03-31T15:42:00.565Z,42.70
2018-03-31T15:44:27.904Z,44.80
2018-03-31T15:46:55.244Z,49.70
2018-03-31T15:49:22.589Z,46.60
2018-03-31T15:51:49.929Z,44.30
2018-03-31T15:54:17.263Z,41.40
2018-03-31T15:56:44.706Z,41.20
2018-03-31T15:59:12.050Z,42.30
2018-03-31T16:01:39.387Z,41.10
2018-03-31T16:04:06.727Z,41.00
2018-03-31T16:06:34.068Z,41.10
2018-03-31T16:09:01.406Z,40.00
2018-03-31T16:11:28.747Z,39.70
2018-03-31T16:13:56.086Z,40.40
2018-03-31T16:16:23.425Z,40.20
2018-03-31T16:18:50.765Z,39.50
2018-03-31T16:21:18.106Z,41.20
2018-03-31T16:23:45.446Z,41.90
2018-03-31T16:26:12.787Z,45.70
2018-03-31T16:28:40.126Z,44.70
2018-03-31T16:31:07.466Z,42.40
2018-03-31T16:33:34.806Z,44.00
2018-03-31T16:36:02.148Z,45.00
2018-03-31T16:38:29.495Z,44.50
2018-03-31T16:40:56.927Z,45.30
2018-03-31T16:43:24.268Z,44.50
2018-03-31T16:45:51.616Z,42.70
2018-03-31T16:48:18.948Z,42.80
2018-03-31T16:50:47.310Z,42.40
2018-03-31T16:53:15.817Z,43.00
2018-03-31T16:55:43.836Z,43.00
2018-03-31T16:58:11.118Z,42.90
2018-03-31T17:00:38.414Z,42.60
2018-03-31T17:03:05.904Z,41.40
2018-03-31T17:05:33.298Z,41.00
2018-03-31T17:08:00.637Z,40.50
2018-03-31T17:10:27.976Z,41.00
2018-03-31T17:12:55.316Z,40.70
2018-03-31T17:15:22.662Z,40.90
2018-03-31T17:17:49.998Z,41.40
2018-03-31T17:20:17.437Z,42.20
2018-03-31T17:22:44.887Z,43.10
2018-03-31T17:25:12.223Z,43.50
2018-03-31T17:27:39.562Z,43.90
2018-03-31T17:30:07.006Z,43.90
2018-03-31T17:32:34.446Z,43.90
2018-03-31T17:35:01.786Z,43.90
2018-03-31T17:37:29.129Z,43.90
2018-03-31T17:39:56.465Z,44.30
2018-03-31T17:42:23.783Z,44.90
2018-03-31T17:44:51.153Z,44.80
2018-03-31T17:47:18.483Z,45.10
2018-03-31T17:49:45.824Z,45.00
2018-03-31T17:52:13.373Z,45.40
2018-03-31T17:54:40.714Z,45.70
2018-03-31T17:57:08.051Z,45.90
2018-03-31T17:59:35.390Z,45.80
2018-03-31T18:02:02.730Z,46.00
2018-03-31T18:04:30.332Z,46.20
2018-03-31T18:06:57.614Z,46.30
2018-03-31T18:09:24.952Z,46.40
2018-03-31T18:11:52.396Z,46.50
2018-03-31T18:14:19.736Z,47.10
2018-03-31T18:16:47.075Z,47.10
2018-03-31T18:19:14.422Z,47.20
2018-03-31T18:21:41.814Z,47.30
2018-03-31T18:24:09.098Z,47.40
2018-03-31T18:26:36.439Z,47.40
2018-03-31T18:29:03.725Z,47.60
2018-03-31T18:31:30.965Z,47.90
2018-03-31T18:33:58.252Z,47.70
2018-03-31T18:36:25.594Z,47.80
2018-03-31T18:38:52.930Z,48.00
2018-03-31T18:41:20.374Z,48.10
2018-03-31T18:43:47.713Z,48.40
2018-03-31T18:46:15.053Z,48.90
2018-03-31T18:48:42.397Z,48.80
2018-03-31T18:51:09.737Z,48.80
2018-03-31T18:53:37.074Z,49.30
2018-03-31T18:56:04.414Z,49.60
2018-03-31T18:58:31.756Z,50.00
2018-03-31T19:00:59.092Z,50.10
2018-03-31T19:03:26.433Z,50.00
2018-03-31T19:05:53.773Z,50.30
2018-03-31T19:08:21.111Z,50.60
2018-03-31T19:10:48.504Z,50.60
2018-03-31T19:13:15.791Z,50.60
2018-03-31T19:15:45.996Z,50.70
2018-03-31T19:18:13.448Z,50.90
2018-03-31T19:20:40.783Z,50.90
2018-03-31T19:23:08.122Z,51.00
2018-03-31T19:25:35.465Z,51.00
2018-03-31T19:28:02.801Z,51.20
2018-03-31T19:30:35.714Z,51.10
2018-03-31T19:33:03.115Z,51.20
2018-03-31T19:38:32.095Z,51.50
2018-03-31T19:40:59.536Z,51.60
2018-03-31T19:43:26.774Z,51.60
2018-03-31T19:45:54.116Z,51.70
2018-03-31T19:48:21.452Z,51.60
2018-03-31T19:50:48.690Z,51.70
2018-03-31T19:53:16.439Z,51.80
2018-03-31T19:55:43.783Z,51.90
2018-03-31T19:58:11.127Z,51.70
2018-03-31T20:00:38.465Z,51.50
2018-03-31T20:03:05.906Z,51.30
2018-03-31T20:05:33.245Z,51.30
2018-03-31T20:08:00.556Z,51.40
2018-03-31T20:10:28.024Z,52.20
2018-03-31T20:12:55.576Z,51.70
2018-03-31T20:15:22.910Z,51.40
2018-03-31T20:17:50.251Z,51.40
2018-03-31T20:20:17.591Z,51.50
2018-03-31T20:22:45.043Z,51.50
2018-03-31T20:25:22.769Z,51.60
2018-03-31T20:27:50.154Z,51.50
2018-03-31T20:30:17.500Z,51.40
2018-03-31T20:32:44.944Z,51.40
2018-03-31T20:35:12.283Z,51.50
2018-03-31T20:37:44.280Z,51.70
2018-03-31T20:40:11.772Z,51.70
2018-03-31T20:42:39.052Z,51.40
2018-03-31T20:45:06.285Z,51.20
2018-03-31T20:47:33.586Z,51.30
2018-03-31T20:50:01.028Z,51.30
2018-03-31T20:52:28.369Z,51.30
2018-03-31T20:54:55.709Z,51.50
2018-03-31T20:57:23.045Z,51.40
2018-03-31T20:59:50.387Z,51.40
2018-03-31T21:02:17.727Z,51.40
2018-03-31T21:04:45.074Z,51.20
2018-03-31T21:07:12.623Z,51.40
2018-03-31T21:09:39.956Z,51.50
2018-03-31T21:12:07.294Z,51.70
2018-03-31T21:14:35.844Z,52.40
2018-03-31T21:17:03.201Z,51.70
2018-03-31T21:19:30.546Z,51.50
2018-03-31T21:21:57.878Z,51.40
2018-03-31T21:24:25.112Z,51.40
2018-03-31T21:26:52.456Z,51.50
2018-03-31T21:29:19.735Z,51.70
2018-03-31T21:31:47.034Z,51.90
2018-03-31T21:34:14.480Z,52.10
2018-03-31T21:36:41.822Z,52.20
2018-03-31T21:39:09.158Z,52.40
2018-03-31T21:41:36.497Z,52.30
2018-03-31T21:44:03.837Z,52.00
2018-03-31T21:46:31.179Z,52.20
2018-03-31T21:48:58.372Z,52.30
2018-03-31T21:51:25.664Z,52.50
2018-03-31T21:53:53.196Z,52.70
2018-03-31T21:56:20.535Z,53.00
2018-03-31T21:58:47.979Z,53.10
2018-03-31T22:01:15.419Z,53.50
2018-03-31T22:03:42.764Z,53.80
2018-03-31T22:06:10.112Z,54.00
2018-03-31T22:08:37.559Z,54.50
2018-03-31T22:11:04.889Z,55.10
2018-03-31T22:13:37.958Z,55.40
2018-03-31T22:16:05.301Z,55.90
2018-03-31T22:18:32.535Z,56.30
2018-03-31T22:20:59.976Z,56.50
2018-03-31T22:23:27.420Z,56.70
2018-03-31T22:25:54.760Z,56.90
2018-03-31T22:28:22.099Z,56.90
2018-03-31T22:30:49.437Z,57.00
2018-03-31T22:33:16.780Z,57.10
2018-03-31T22:35:44.019Z,57.20
2018-03-31T22:38:11.461Z,57.40
2018-03-31T22:40:38.801Z,57.60
2018-03-31T22:43:06.244Z,57.70
2018-03-31T22:45:33.581Z,57.90
2018-03-31T22:48:01.025Z,58.20
2018-03-31T22:50:28.364Z,58.40
2018-03-31T22:52:55.807Z,58.60
2018-03-31T22:55:23.247Z,58.60
2018-03-31T22:57:50.588Z,58.70
2018-03-31T23:00:17.927Z,58.80
2018-03-31T23:02:45.272Z,58.80
2018-03-31T23:05:12.759Z,58.90
2018-03-31T23:07:40.052Z,59.00
2018-03-31T23:10:07.389Z,59.10
2018-03-31T23:12:34.630Z,59.20
2018-03-31T23:15:02.070Z,59.40
2018-03-31T23:17:29.625Z,59.50
2018-03-31T23:19:57.058Z,59.70
2018-03-31T23:22:24.395Z,60.00
2018-03-31T23:24:51.839Z,60.10
2018-03-31T23:27:19.178Z,60.20
2018-03-31T23:29:46.518Z,60.40
2018-03-31T23:32:14.068Z,60.60
2018-03-31T23:34:41.406Z,60.70
2018-03-31T23:37:08.744Z,60.80
2018-03-31T23:39:36.192Z,60.90
2018-03-31T23:42:03.536Z,61.00
2018-03-31T23:44:30.865Z,61.00
2018-03-31T23:46:58.207Z,61.10
2018-03-31T23:49:25.679Z,61.00
2018-03-31T23:51:53.705Z,61.30
2018-03-31T23:54:21.044Z,61.20
2018-03-31T23:56:48.384Z,61.30
2018-03-31T23:59:15.620Z,61.20
